Time;durP1;ratioP1;P1;durP2;ratioP2;P2;SDS_P1;SDS_P2;PMS_P1;PMS_P2;Temp;Humidity;BMP_temperature;BMP_pressure;BME280_temperature;BME280_humidity;BME280_pressure;Samples;Min_cycle;Max_cycle;Signal;HPM_P1;HPM_P2
2023/10/25 00:02:27;;;;;;;;;2.00;2.00;;;;;21.67;55.44;99539.22;110152;1251;19608;-33
2023/10/25 00:04:54;;;;;;;;;2.00;2.00;;;;;21.66;55.56;99534.98;110137;1249;22815;-33
2023/10/25 00:07:22;;;;;;;;;2.00;2.00;;;;;21.65;55.62;99533.70;110135;1252;21891;-33
2023/10/25 00:09:49;;;;;;;;;2.00;2.00;;;;;21.67;55.48;99530.98;110183;1265;19499;-33
2023/10/25 00:12:16;;;;;;;;;2.00;2.00;;;;;21.66;55.51;99527.95;110182;1266;21078;-33
2023/10/25 00:14:44;;;;;;;;;2.00;2.00;;;;;21.65;55.54;99524.65;110141;1259;20756;-33
2023/10/25 00:17:11;;;;;;;;;1.00;1.00;;;;;21.67;55.25;99521.29;110163;1265;18471;-33
2023/10/25 00:19:39;;;;;;;;;2.00;2.00;;;;;21.66;55.57;99522.12;110157;1265;20012;-33
2023/10/25 00:22:06;;;;;;;;;5.00;4.00;;;;;21.64;55.64;99519.98;110172;1265;20609;-33
2023/10/25 00:24:33;;;;;;;;;2.67;2.00;;;;;21.63;55.63;99510.96;110059;1259;19487;-33
2023/10/25 00:27:01;;;;;;;;;2.00;2.00;;;;;21.64;55.51;99512.42;110089;1266;19986;-33
2023/10/25 00:29:28;;;;;;;;;2.00;2.00;;;;;21.63;55.49;99505.99;110152;1252;20930;-33
2023/10/25 00:31:56;;;;;;;;;2.00;2.00;;;;;21.64;55.66;99510.30;110131;1266;18422;-33
2023/10/25 00:34:23;;;;;;;;;2.00;2.00;;;;;21.63;55.34;99507.24;110147;1251;20236;-34
2023/10/25 00:36:50;;;;;;;;;2.00;2.00;;;;;21.64;55.38;99505.55;110170;1265;19772;-33
2023/10/25 00:39:18;;;;;;;;;2.00;2.00;;;;;21.64;55.24;99504.66;110149;1265;19882;-33
2023/10/25 00:41:45;;;;;;;;;2.00;2.00;;;;;21.66;55.24;99503.16;110128;1253;20026;-33
2023/10/25 00:44:13;;;;;;;;;2.00;2.00;;;;;21.64;55.41;99503.09;110123;1250;21943;-33
2023/10/25 00:46:40;;;;;;;;;2.00;2.00;;;;;21.63;55.36;99496.09;110150;1251;19617;-34
2023/10/25 00:49:08;;;;;;;;;2.00;2.00;;;;;21.64;55.25;99490.77;110143;1265;18537;-33
2023/10/25 00:51:35;;;;;;;;;2.00;2.00;;;;;21.64;55.45;99490.55;110170;1249;19387;-33
2023/10/25 00:54:03;;;;;;;;;2.00;2.00;;;;;21.68;55.15;99489.50;110145;1252;23049;-33
2023/10/25 00:56:30;;;;;;;;;2.00;2.00;;;;;21.65;55.26;99486.94;110160;1250;18764;-33
2023/10/25 00:58:58;;;;;;;;;1.33;1.33;;;;;21.64;55.39;99482.10;110174;1265;20693;-33
2023/10/25 01:01:26;;;;;;;;;3.00;3.00;;;;;21.64;55.22;99483.63;110145;1265;18437;-32
2023/10/25 01:03:53;;;;;;;;;2.00;2.00;;;;;21.64;55.17;99480.80;110025;1250;20315;-33
2023/10/25 01:06:21;;;;;;;;;2.00;2.00;;;;;21.65;55.32;99476.73;110181;1265;20826;-33
2023/10/25 01:08:48;;;;;;;;;2.00;2.00;;;;;21.64;55.37;99475.46;110150;1250;18450;-33
2023/10/25 01:11:16;;;;;;;;;1.00;1.00;;;;;21.62;55.32;99473.77;110177;1265;18610;-33
2023/10/25 01:13:43;;;;;;;;;4.00;2.00;;;;;21.62;55.28;99474.73;110136;1250;20738;-33
2023/10/25 01:16:11;;;;;;;;;2.00;2.00;;;;;21.60;55.43;99474.04;110166;1250;22690;-33
2023/10/25 01:18:38;;;;;;;;;2.00;2.00;;;;;21.60;55.40;99474.94;110142;1250;18681;-33
2023/10/25 01:21:05;;;;;;;;;2.00;2.00;;;;;21.62;55.22;99474.18;110157;1251;22088;-33
2023/10/25 01:23:33;;;;;;;;;2.00;2.00;;;;;21.63;55.08;99470.64;110160;1251;19632;-33
2023/10/25 01:26:00;;;;;;;;;1.00;1.00;;;;;21.63;55.10;99465.77;110144;1265;21856;-33
2023/10/25 01:28:28;;;;;;;;;2.00;2.00;;;;;21.64;55.36;99471.04;110172;1265;20731;-33
2023/10/25 01:30:55;;;;;;;;;2.00;2.00;;;;;21.61;55.08;99464.78;110153;1259;22469;-33
2023/10/25 01:33:22;;;;;;;;;4.00;3.00;;;;;21.59;55.21;99466.05;110169;1265;18612;-32
2023/10/25 01:35:51;;;;;;;;;2.00;2.00;;;;;21.59;55.17;99460.44;110142;1250;20780;-33
2023/10/25 01:38:18;;;;;;;;;2.00;2.00;;;;;21.61;55.28;99458.46;110142;1251;19591;-33
2023/10/25 01:40:46;;;;;;;;;1.50;1.50;;;;;21.58;55.12;99456.42;110170;1250;21344;-32
2023/10/25 01:43:13;;;;;;;;;2.00;2.00;;;;;21.61;55.25;99456.19;110059;1251;20974;-33
2023/10/25 01:45:41;;;;;;;;;2.00;2.00;;;;;21.59;55.16;99453.92;110136;1259;21740;-32
2023/10/25 01:48:08;;;;;;;;;2.00;1.00;;;;;21.59;55.25;99451.75;110126;1251;20518;-33
2023/10/25 01:50:36;;;;;;;;;1.00;1.00;;;;;21.61;55.24;99448.94;110149;1265;20947;-33
2023/10/25 01:53:03;;;;;;;;;2.00;2.00;;;;;21.62;55.00;99444.70;110154;1251;19610;-32
2023/10/25 01:55:30;;;;;;;;;2.00;2.00;;;;;21.60;55.06;99446.89;110149;1265;22760;-31
2023/10/25 01:57:58;;;;;;;;;2.00;2.00;;;;;21.60;55.13;99443.23;110025;1253;20709;-33
2023/10/25 02:00:25;;;;;;;;;2.00;2.00;;;;;21.62;55.15;99440.79;110074;1251;20804;-33
2023/10/25 02:02:53;;;;;;;;;2.00;2.00;;;;;21.60;54.96;99437.88;110129;1250;20034;-34
2023/10/25 02:05:20;;;;;;;;;4.00;2.00;;;;;21.61;55.14;99435.86;110155;1265;20947;-33
2023/10/25 02:07:48;;;;;;;;;1.00;1.00;;;;;21.63;54.89;99437.10;110139;1251;23492;-33
2023/10/25 02:10:15;;;;;;;;;2.00;2.00;;;;;21.64;54.77;99433.16;110141;1251;20214;-33
2023/10/25 02:12:43;;;;;;;;;2.00;2.00;;;;;21.61;54.94;99434.23;110157;1265;19363;-33
2023/10/25 02:15:10;;;;;;;;;2.00;2.00;;;;;21.62;55.00;99435.61;110150;1250;22689;-33
2023/10/25 02:17:37;;;;;;;;;1.50;1.50;;;;;21.62;55.07;99435.01;110045;1251;20131;-33
2023/10/25 02:20:05;;;;;;;;;2.00;2.00;;;;;21.63;54.91;99431.88;110113;1250;20817;-33
2023/10/25 02:22:32;;;;;;;;;1.00;1.00;;;;;21.62;54.94;99430.33;110150;1265;22626;-33
2023/10/25 02:25:00;;;;;;;;;1.50;1.50;;;;;21.61;54.91;99432.09;110172;1265;18617;-34
2023/10/25 02:27:27;;;;;;;;;4.00;4.00;;;;;21.64;54.76;99432.30;110154;1250;19378;-33
2023/10/25 02:29:54;;;;;;;;;1.50;1.50;;;;;21.61;55.25;99428.39;110141;1265;19551;-33
2023/10/25 02:32:22;;;;;;;;;1.33;1.33;;;;;21.59;55.02;99428.98;110182;1250;21292;-33
2023/10/25 02:34:49;;;;;;;;;2.00;2.00;;;;;21.59;55.06;99425.59;110158;1265;19461;-33
2023/10/25 02:37:17;;;;;;;;;2.00;2.00;;;;;21.61;54.77;99424.29;110143;1251;19604;-33
2023/10/25 02:39:45;;;;;;;;;2.00;2.00;;;;;21.59;54.99;99418.57;110160;1259;21194;-34
2023/10/25 02:42:13;;;;;;;;;2.00;2.00;;;;;21.58;55.03;99413.69;110132;1250;19358;-34
2023/10/25 02:44:40;;;;;;;;;1.00;1.00;;;;;21.61;55.05;99413.33;110172;1265;18419;-34
2023/10/25 02:47:08;;;;;;;;;2.00;2.00;;;;;21.63;54.87;99414.98;110204;1265;18652;-34
2023/10/25 02:49:35;;;;;;;;;2.00;2.00;;;;;21.61;54.84;99409.58;110196;1265;19245;-33
2023/10/25 02:52:03;;;;;;;;;2.00;2.00;;;;;21.63;54.78;99404.20;110195;1258;19800;-34
2023/10/25 02:54:30;;;;;;;;;1.00;1.00;;;;;21.63;54.89;99405.00;110182;1250;21384;-32
2023/10/25 02:56:57;;;;;;;;;1.00;1.00;;;;;21.59;54.97;99399.21;110126;1251;20971;-33
2023/10/25 02:59:25;;;;;;;;;1.00;1.00;;;;;21.59;55.16;99397.77;110158;1259;19743;-33
2023/10/25 03:01:52;;;;;;;;;2.00;2.00;;;;;21.57;54.86;99394.80;110161;1251;20110;-33
2023/10/25 03:04:20;;;;;;;;;2.00;2.00;;;;;21.58;55.05;99392.65;110161;1265;19358;-33
2023/10/25 03:06:47;;;;;;;;;1.00;1.00;;;;;21.59;54.86;99388.31;110117;1249;19895;-33
2023/10/25 03:09:15;;;;;;;;;2.00;2.00;;;;;21.58;54.85;99390.79;110138;1257;19915;-33
2023/10/25 03:11:42;;;;;;;;;2.00;2.00;;;;;21.57;54.89;99388.03;110161;1250;22145;-33
2023/10/25 03:14:10;;;;;;;;;2.00;2.00;;;;;21.59;54.88;99387.89;110139;1265;19549;-33
2023/10/25 03:16:37;;;;;;;;;1.00;1.00;;;;;21.58;55.02;99390.48;110151;1250;22814;-33
2023/10/25 03:19:05;;;;;;;;;2.00;2.00;;;;;21.59;54.90;99390.67;110152;1265;19324;-33
2023/10/25 03:21:32;;;;;;;;;2.00;2.00;;;;;21.59;54.93;99387.05;110159;1265;21296;-33
2023/10/25 03:23:59;;;;;;;;;2.00;2.00;;;;;21.60;54.82;99380.39;110175;1259;20175;-33
2023/10/25 03:26:27;;;;;;;;;2.00;2.00;;;;;21.59;54.80;99381.83;110150;1265;20742;-34
2023/10/25 03:28:55;;;;;;;;;2.00;2.00;;;;;21.57;54.75;99376.87;110159;1251;19620;-32
2023/10/25 03:31:23;;;;;;;;;1.00;1.00;;;;;21.56;54.84;99380.75;110159;1250;20739;-35
2023/10/25 03:33:50;;;;;;;;;1.00;1.00;;;;;21.57;54.83;99379.82;110154;1265;19349;-35
2023/10/25 03:36:17;;;;;;;;;2.00;2.00;;;;;21.59;54.82;99378.46;110134;1251;20444;-32
2023/10/25 03:38:45;;;;;;;;;1.00;1.00;;;;;21.57;54.92;99379.09;110160;1265;18605;-32
2023/10/25 03:41:12;;;;;;;;;2.00;2.00;;;;;21.57;54.85;99378.77;110158;1251;20833;-32
2023/10/25 03:43:40;;;;;;;;;2.00;2.00;;;;;21.57;54.67;99378.06;110166;1257;19965;-32
2023/10/25 03:46:07;;;;;;;;;4.00;2.00;;;;;21.55;55.03;99373.36;110125;1250;20057;-32
2023/10/25 03:48:34;;;;;;;;;2.00;2.00;;;;;21.56;54.80;99370.04;110168;1253;20989;-33
2023/10/25 03:51:02;;;;;;;;;2.00;2.00;;;;;21.57;54.92;99369.95;110149;1252;19845;-33
2023/10/25 03:53:29;;;;;;;;;2.00;2.00;;;;;21.58;54.80;99368.67;110142;1265;23478;-33
2023/10/25 03:55:57;;;;;;;;;2.00;2.00;;;;;21.59;54.74;99369.80;110134;1251;20799;-33
2023/10/25 03:58:24;;;;;;;;;2.00;2.00;;;;;21.56;54.95;99363.70;110149;1250;22778;-33
2023/10/25 04:00:52;;;;;;;;;2.00;2.00;;;;;21.59;54.72;99364.20;110148;1250;20047;-32
2023/10/25 04:03:19;;;;;;;;;2.00;2.00;;;;;21.57;54.79;99361.39;110148;1250;21846;-33
2023/10/25 04:05:47;;;;;;;;;2.00;2.00;;;;;21.62;54.46;99360.67;110139;1265;22384;-32
2023/10/25 04:08:15;;;;;;;;;2.00;2.00;;;;;21.59;54.75;99359.93;110139;1250;20061;-33
2023/10/25 04:10:42;;;;;;;;;1.00;1.00;;;;;21.61;54.68;99359.59;110037;1250;22204;-32
2023/10/25 04:13:09;;;;;;;;;2.00;2.00;;;;;21.61;54.48;99359.88;110118;1250;18463;-33
2023/10/25 04:15:37;;;;;;;;;3.00;2.00;;;;;21.59;54.66;99360.96;110163;1265;18696;-33
2023/10/25 04:18:09;;;;;;;;;2.00;2.00;;;;;21.59;54.75;99360.09;110141;1259;20973;-33
2023/10/25 04:20:36;;;;;;;;;2.00;2.00;;;;;21.58;54.85;99358.16;110148;1265;18517;-33
2023/10/25 04:23:04;;;;;;;;;2.00;2.00;;;;;21.56;54.76;99354.66;110137;1250;20032;-33
2023/10/25 04:25:31;;;;;;;;;1.00;1.00;;;;;21.57;54.76;99351.32;110144;1250;20811;-33
2023/10/25 04:27:59;;;;;;;;;2.00;2.00;;;;;21.58;54.74;99350.15;110031;1265;22673;-33
2023/10/25 04:30:26;;;;;;;;;2.00;2.00;;;;;21.59;54.62;99344.89;110070;1265;18533;-33
2023/10/25 04:32:53;;;;;;;;;2.00;2.00;;;;;21.59;54.69;99340.92;110211;1265;20767;-33
2023/10/25 04:35:21;;;;;;;;;2.00;2.00;;;;;21.59;54.63;99339.39;110238;1265;18539;-33
2023/10/25 04:37:48;;;;;;;;;2.00;2.00;;;;;21.63;54.46;99331.15;110228;1249;23521;-33
2023/10/25 04:40:16;;;;;;;;;4.00;4.00;;;;;21.66;54.45;99325.20;110241;1251;20738;-33
2023/10/25 04:42:44;;;;;;;;;2.00;2.00;;;;;21.63;54.61;99322.11;110251;1250;19596;-33
2023/10/25 04:45:11;;;;;;;;;4.00;2.00;;;;;21.60;54.70;99321.48;110251;1251;19886;-33
2023/10/25 04:47:39;;;;;;;;;4.00;2.00;;;;;21.61;55.06;99319.59;110233;1251;20754;-33
2023/10/25 04:50:06;;;;;;;;;2.00;2.00;;;;;21.66;55.98;99318.88;110234;1250;23114;-34
2023/10/25 04:52:33;;;;;;;;;2.00;2.00;;;;;21.67;56.16;99323.54;110207;1265;18625;-35
2023/10/25 04:55:01;;;;;;;;;4.00;2.00;;;;;21.71;56.88;99320.79;110090;1253;20874;-35
2023/10/25 04:57:29;;;;;;;;;2.67;2.00;;;;;21.70;57.54;99324.68;109991;1259;19473;-34
2023/10/25 04:59:56;;;;;;;;;4.00;2.00;;;;;21.69;57.26;99324.58;110172;1250;18712;-35
2023/10/25 05:02:24;;;;;;;;;2.00;2.00;;;;;21.74;57.33;99324.45;110109;1263;19387;-35
2023/10/25 05:04:51;;;;;;;;;4.00;4.00;;;;;21.77;56.94;99329.25;110150;1249;19657;-33
2023/10/25 05:07:19;;;;;;;;;4.00;4.00;;;;;21.72;57.05;99330.18;109811;1265;465155;-33
2023/10/25 05:09:46;;;;;;;;;4.00;4.00;;;;;21.76;57.18;99330.52;110144;1265;20710;-33
2023/10/25 05:12:13;;;;;;;;;5.00;4.00;;;;;21.73;57.25;99332.81;110148;1253;19636;-33
2023/10/25 05:14:41;;;;;;;;;2.00;2.00;;;;;21.76;57.07;99335.05;110080;1259;18659;-32
2023/10/25 05:17:09;;;;;;;;;4.00;4.00;;;;;21.69;57.51;99335.38;110062;1250;21887;-33
2023/10/25 05:19:36;;;;;;;;;4.00;4.00;;;;;21.68;57.80;99337.74;110167;1253;19592;-33
2023/10/25 05:22:04;;;;;;;;;2.00;2.00;;;;;21.73;57.81;99337.68;110167;1253;22267;-33
2023/10/25 05:24:31;;;;;;;;;4.00;4.00;;;;;21.76;58.07;99334.24;110186;1265;20882;-33
2023/10/25 05:26:59;;;;;;;;;2.00;2.00;;;;;21.72;57.88;99338.26;110182;1251;19654;-34
2023/10/25 05:29:26;;;;;;;;;5.00;4.00;;;;;21.76;57.46;99336.85;110182;1250;20105;-33
2023/10/25 05:31:54;;;;;;;;;2.00;2.00;;;;;21.72;57.81;99332.98;110158;1265;22696;-33
2023/10/25 05:34:21;;;;;;;;;3.00;3.00;;;;;21.72;57.84;99334.70;110164;1253;19627;-32
2023/10/25 05:36:48;;;;;;;;;2.00;2.00;;;;;21.69;58.14;99338.82;110181;1257;21402;-33
2023/10/25 05:39:16;;;;;;;;;2.00;2.00;;;;;21.67;57.72;99336.55;110190;1253;20801;-33
2023/10/25 05:41:43;;;;;;;;;2.00;2.00;;;;;21.70;57.44;99339.84;110171;1253;23967;-32
2023/10/25 05:44:11;;;;;;;;;4.00;4.00;;;;;21.72;57.78;99341.59;110204;1265;18527;-33
2023/10/25 05:46:38;;;;;;;;;4.00;4.00;;;;;21.71;57.59;99347.42;110177;1251;22083;-33
2023/10/25 05:49:05;;;;;;;;;4.00;4.00;;;;;21.68;57.24;99346.57;110166;1265;18600;-33
2023/10/25 05:51:33;;;;;;;;;4.00;4.00;;;;;21.66;57.51;99348.80;110149;1253;20167;-32
2023/10/25 05:54:00;;;;;;;;;2.00;2.00;;;;;21.65;57.42;99349.65;110160;1253;20820;-33
2023/10/25 05:56:28;;;;;;;;;2.00;2.00;;;;;21.64;57.57;99351.52;110130;1251;19987;-33
2023/10/25 05:58:55;;;;;;;;;4.00;4.00;;;;;21.64;57.57;99353.77;110142;1250;20094;-33
2023/10/25 06:01:23;;;;;;;;;2.00;2.00;;;;;21.69;57.22;99355.39;110131;1250;22778;-33
2023/10/25 06:03:50;;;;;;;;;4.00;4.00;;;;;21.75;57.27;99353.86;110030;1250;19600;-33
2023/10/25 06:06:18;;;;;;;;;5.00;5.00;;;;;21.73;56.97;99358.11;109935;1251;20120;-33
2023/10/25 06:08:45;;;;;;;;;5.00;5.00;;;;;21.66;57.09;99354.31;109936;1251;20810;-33
2023/10/25 06:11:12;;;;;;;;;7.00;7.00;;;;;21.60;56.45;99360.17;110085;1259;19416;-33
2023/10/25 06:13:40;;;;;;;;;8.00;8.00;;;;;21.55;56.60;99356.76;110158;1265;19975;-34
2023/10/25 06:16:07;;;;;;;;;11.00;8.50;;;;;21.51;56.24;99354.40;110140;1265;21075;-33
2023/10/25 06:18:35;;;;;;;;;5.67;5.67;;;;;21.49;56.12;99355.37;110157;1253;20842;-33
2023/10/25 06:21:02;;;;;;;;;8.00;7.00;;;;;21.44;55.66;99356.64;110134;1253;20037;-33
2023/10/25 06:23:30;;;;;;;;;6.00;6.00;;;;;21.42;54.95;99353.96;110056;1251;22624;-33
2023/10/25 06:25:57;;;;;;;;;8.00;7.00;;;;;21.40;54.41;99354.88;110110;1250;18568;-33
2023/10/25 06:28:24;;;;;;;;;12.00;11.00;;;;;21.38;54.43;99351.50;110096;1265;20034;-33
2023/10/25 06:30:52;;;;;;;;;14.00;11.00;;;;;21.36;54.00;99353.27;110160;1252;20905;-34
2023/10/25 06:33:19;;;;;;;;;9.00;9.00;;;;;21.37;53.50;99354.08;110149;1265;22214;-33
2023/10/25 06:35:47;;;;;;;;;11.00;11.00;;;;;21.37;53.40;99351.95;110126;1266;18900;-33
2023/10/25 06:38:14;;;;;;;;;9.00;9.00;;;;;21.34;53.06;99348.27;110139;1250;20955;-33
2023/10/25 06:40:42;;;;;;;;;14.00;14.00;;;;;21.33;52.97;99350.14;110131;1265;18620;-33
2023/10/25 06:43:09;;;;;;;;;8.67;8.67;;;;;21.31;52.85;99351.64;110130;1250;21539;-33
2023/10/25 06:45:36;;;;;;;;;12.00;11.00;;;;;21.31;52.43;99351.53;110118;1265;19531;-33
2023/10/25 06:48:04;;;;;;;;;11.00;10.00;;;;;21.30;52.42;99354.23;110161;1251;19596;-34
2023/10/25 06:50:31;;;;;;;;;8.50;8.00;;;;;21.33;52.23;99355.30;110128;1257;20659;-34
2023/10/25 06:52:59;;;;;;;;;14.00;10.67;;;;;21.41;52.05;99352.95;110142;1253;19994;-33
2023/10/25 06:55:26;;;;;;;;;14.00;12.00;;;;;21.42;51.87;99351.95;110166;1251;19717;-33
2023/10/25 06:57:54;;;;;;;;;9.00;9.00;;;;;21.37;52.27;99353.63;110165;1251;20078;-32
2023/10/25 07:00:22;;;;;;;;;10.00;10.00;;;;;21.45;52.21;99349.15;110131;1265;19384;-32
2023/10/25 07:02:49;;;;;;;;;12.00;10.00;;;;;21.51;52.24;99348.30;110163;1249;19222;-33
2023/10/25 07:05:17;;;;;;;;;8.00;8.00;;;;;21.51;53.38;99348.69;110144;1249;20400;-33
2023/10/25 07:07:45;;;;;;;;;12.00;11.33;;;;;21.50;53.52;99345.31;110141;1265;20728;-33
2023/10/25 07:10:12;;;;;;;;;12.00;11.00;;;;;21.48;53.32;99341.02;110182;1265;19031;-33
2023/10/25 07:12:40;;;;;;;;;8.00;7.50;;;;;21.52;53.46;99338.02;110132;1251;20419;-33
2023/10/25 07:15:07;;;;;;;;;9.00;8.00;;;;;21.54;54.14;99332.36;110138;1265;19349;-32
2023/10/25 07:17:35;;;;;;;;;10.00;10.00;;;;;21.56;54.42;99331.98;110159;1251;19655;-33
2023/10/25 07:20:02;;;;;;;;;8.00;8.00;;;;;21.58;54.29;99329.54;110115;1253;23283;-33
2023/10/25 07:22:30;;;;;;;;;9.00;9.00;;;;;21.61;54.35;99324.63;110150;1249;21383;-32
2023/10/25 07:24:57;;;;;;;;;7.00;7.00;;;;;21.68;54.31;99320.25;110153;1253;19623;-33
2023/10/25 07:27:25;;;;;;;;;7.00;7.00;;;;;21.67;53.86;99316.61;110137;1253;20745;-33
2023/10/25 07:29:52;;;;;;;;;7.50;7.00;;;;;21.64;53.81;99315.77;110140;1257;19363;-33
2023/10/25 07:32:20;;;;;;;;;10.00;8.50;;;;;21.68;53.64;99315.85;110092;1265;22715;-33
2023/10/25 07:34:47;;;;;;;;;8.00;8.00;;;;;21.58;53.59;99313.95;110077;1251;20168;-33
2023/10/25 07:37:15;;;;;;;;;9.00;9.00;;;;;21.58;53.73;99308.95;110074;1253;20808;-33
2023/10/25 07:39:42;;;;;;;;;9.00;8.50;;;;;21.63;53.21;99312.84;110119;1257;20609;-33
2023/10/25 07:42:10;;;;;;;;;11.00;9.00;;;;;21.63;53.04;99310.27;110047;1249;20067;-34
2023/10/25 07:44:37;;;;;;;;;8.00;8.00;;;;;21.64;53.19;99309.16;110012;1266;21797;-34
2023/10/25 07:47:04;;;;;;;;;7.00;7.00;;;;;21.58;53.40;99311.91;110093;1265;18522;-33
2023/10/25 07:49:32;;;;;;;;;8.00;8.00;;;;;21.66;53.01;99312.73;109995;1265;19950;-33
2023/10/25 07:51:59;;;;;;;;;8.67;7.67;;;;;21.68;52.67;99312.30;109841;1250;20898;-33
2023/10/25 07:54:27;;;;;;;;;8.50;7.50;;;;;21.66;52.76;99310.61;110055;1265;21062;-33
2023/10/25 07:56:54;;;;;;;;;7.00;6.00;;;;;21.65;52.64;99307.69;110076;1251;22628;-33
2023/10/25 07:59:21;;;;;;;;;7.00;7.00;;;;;21.64;52.73;99307.44;110119;1250;20747;-33
2023/10/25 08:01:49;;;;;;;;;8.00;7.00;;;;;21.63;52.57;99306.42;110107;1265;20329;-33
2023/10/25 08:04:18;;;;;;;;;7.67;7.00;;;;;21.53;53.11;99310.88;110147;1250;20010;-34
2023/10/25 08:06:46;;;;;;;;;5.67;5.67;;;;;21.49;53.14;99307.81;110133;1265;20808;-33
2023/10/25 08:09:13;;;;;;;;;7.00;5.00;;;;;21.51;53.05;99311.86;110133;1250;21861;-33
2023/10/25 08:11:41;;;;;;;;;5.00;5.00;;;;;21.51;53.03;99316.96;110108;1259;22335;-33
2023/10/25 08:14:08;;;;;;;;;8.00;7.00;;;;;21.54;53.18;99316.94;110105;1252;20730;-33
2023/10/25 08:16:39;;;;;;;;;7.00;7.00;;;;;21.53;53.17;99321.34;110111;1265;20816;-33
2023/10/25 08:19:06;;;;;;;;;7.00;7.00;;;;;21.53;52.98;99325.09;110131;1259;20266;-33
2023/10/25 08:21:35;;;;;;;;;5.00;4.50;;;;;21.52;53.41;99321.84;110150;1257;19373;-33
2023/10/25 08:24:05;;;;;;;;;4.00;4.00;;;;;21.53;53.55;99321.56;110119;1250;22222;-33
2023/10/25 08:26:35;;;;;;;;;4.00;4.00;;;;;21.53;53.36;99324.92;110126;1251;20080;-33
2023/10/25 08:29:02;;;;;;;;;5.00;5.00;;;;;21.53;53.40;99326.17;110133;1250;20763;-33
2023/10/25 08:31:30;;;;;;;;;4.00;4.00;;;;;21.52;53.66;99328.72;110100;1251;19626;-34
2023/10/25 08:33:57;;;;;;;;;5.00;5.00;;;;;21.52;53.51;99331.61;110146;1250;19978;-34
2023/10/25 08:36:25;;;;;;;;;4.00;4.00;;;;;21.51;53.79;99331.09;110108;1265;22274;-34
2023/10/25 08:38:52;;;;;;;;;7.00;5.00;;;;;21.54;53.79;99328.83;110162;1254;18880;-34
2023/10/25 08:41:20;;;;;;;;;4.00;4.00;;;;;21.55;53.70;99333.27;110140;1251;20109;-34
2023/10/25 08:43:47;;;;;;;;;5.00;5.00;;;;;21.52;53.61;99333.89;110133;1265;19361;-34
2023/10/25 08:46:15;;;;;;;;;7.00;7.00;;;;;21.53;53.68;99334.58;110121;1250;22641;-33
2023/10/25 08:48:42;;;;;;;;;4.00;4.00;;;;;21.54;53.60;99339.61;110116;1249;20057;-34
2023/10/25 08:51:10;;;;;;;;;5.00;5.00;;;;;21.62;53.62;99340.46;110139;1251;22630;-34
2023/10/25 08:53:37;;;;;;;;;4.00;4.00;;;;;21.58;53.70;99343.86;110155;1251;19668;-34
2023/10/25 08:56:05;;;;;;;;;2.00;2.00;;;;;21.56;53.51;99345.39;110121;1257;22973;-34
2023/10/25 08:58:32;;;;;;;;;5.00;5.00;;;;;21.54;53.83;99346.66;110123;1265;22558;-33
2023/10/25 09:00:59;;;;;;;;;5.00;5.00;;;;;21.54;53.85;99346.14;110158;1251;19977;-34
2023/10/25 09:03:27;;;;;;;;;4.00;4.00;;;;;21.56;53.61;99346.98;110132;1250;18817;-34
2023/10/25 09:05:55;;;;;;;;;4.00;4.00;;;;;21.56;53.79;99347.80;110095;1265;19511;-34
2023/10/25 09:08:22;;;;;;;;;4.00;4.00;;;;;21.63;53.63;99349.73;110127;1250;22277;-34
2023/10/25 09:10:50;;;;;;;;;4.00;4.00;;;;;21.57;53.65;99348.58;110146;1251;20115;-34
2023/10/25 09:13:17;;;;;;;;;4.50;4.50;;;;;21.57;53.87;99348.92;110164;1259;20660;-34
2023/10/25 09:15:45;;;;;;;;;7.00;5.00;;;;;21.64;53.58;99346.57;110136;1265;18996;-33
2023/10/25 09:18:12;;;;;;;;;4.00;4.00;;;;;21.58;54.13;99342.95;110166;1250;20049;-33
2023/10/25 09:20:40;;;;;;;;;4.00;4.00;;;;;21.57;54.33;99339.05;110141;1260;19365;-33
2023/10/25 09:23:07;;;;;;;;;4.00;4.00;;;;;21.63;54.29;99336.56;110139;1266;19791;-34
2023/10/25 09:25:37;;;;;;;;;7.50;5.00;;;;;21.69;53.94;99329.06;110150;1250;21505;-34
2023/10/25 09:28:04;;;;;;;;;5.00;5.00;;;;;21.68;54.14;99336.59;110121;1250;20824;-35
2023/10/25 09:30:32;;;;;;;;;7.00;5.00;;;;;21.63;54.86;99338.13;110146;1265;20531;-35
2023/10/25 09:32:59;;;;;;;;;7.00;7.00;;;;;21.65;54.73;99341.04;110152;1265;19001;-32
2023/10/25 09:35:26;;;;;;;;;7.00;5.00;;;;;21.66;54.46;99342.00;110094;1265;22807;-35
2023/10/25 09:37:54;;;;;;;;;2.00;2.00;;;;;21.66;54.78;99341.88;110067;1251;19646;-35
2023/10/25 09:40:21;;;;;;;;;7.00;5.00;;;;;21.68;54.73;99340.15;110095;1265;21348;-34
2023/10/25 09:42:49;;;;;;;;;7.00;5.00;;;;;21.64;55.12;99345.84;110120;1250;20831;-35
2023/10/25 09:45:16;;;;;;;;;4.00;4.00;;;;;21.67;55.13;99346.59;110034;1265;20047;-33
2023/10/25 09:47:44;;;;;;;;;4.50;4.50;;;;;21.66;55.15;99343.83;110030;1249;20976;-33
2023/10/25 09:50:11;;;;;;;;;5.00;5.00;;;;;21.63;55.47;99343.27;109989;1251;20806;-34
2023/10/25 09:52:39;;;;;;;;;2.00;2.00;;;;;21.65;55.47;99343.98;109835;1258;19917;-33
2023/10/25 09:55:07;;;;;;;;;2.00;2.00;;;;;21.64;55.77;99339.10;109879;1257;20346;-33
2023/10/25 09:57:34;;;;;;;;;4.00;4.00;;;;;21.63;55.82;99337.88;109835;1259;19402;-33
2023/10/25 10:00:02;;;;;;;;;5.00;4.00;;;;;21.62;55.59;99340.79;109969;1250;20978;-33
2023/10/25 10:02:29;;;;;;;;;4.00;4.00;;;;;21.64;55.84;99342.47;109999;1250;18610;-33
2023/10/25 10:04:57;;;;;;;;;5.00;4.50;;;;;21.68;55.61;99343.52;110063;1251;21353;-34
2023/10/25 10:07:24;;;;;;;;;4.00;4.00;;;;;21.65;56.42;99343.27;110140;1251;19570;-35
2023/10/25 10:09:51;;;;;;;;;3.00;3.00;;;;;21.66;56.08;99346.14;110158;1250;20078;-35
2023/10/25 10:12:19;;;;;;;;;2.00;2.00;;;;;21.68;55.63;99344.29;110137;1253;20707;-35
2023/10/25 10:14:46;;;;;;;;;5.00;5.00;;;;;21.66;55.94;99347.70;110123;1265;18417;-35
2023/10/25 10:17:14;;;;;;;;;2.00;2.00;;;;;21.60;56.23;99349.23;110141;1265;19667;-34
2023/10/25 10:19:42;;;;;;;;;4.00;4.00;;;;;21.64;55.96;99346.52;110130;1265;19561;-34
2023/10/25 10:22:09;;;;;;;;;4.00;4.00;;;;;21.66;55.77;99344.82;110021;1259;22110;-34
2023/10/25 10:24:37;;;;;;;;;4.00;4.00;;;;;21.65;55.51;99341.41;110039;1259;19990;-35
2023/10/25 10:27:04;;;;;;;;;2.00;2.00;;;;;21.62;55.62;99338.39;110097;1265;19354;-34
2023/10/25 10:29:32;;;;;;;;;4.00;4.00;;;;;21.63;55.22;99342.98;110119;1253;19648;-33
2023/10/25 10:31:59;;;;;;;;;4.00;4.00;;;;;21.63;54.99;99338.08;110136;1265;18739;-34
2023/10/25 10:34:27;;;;;;;;;2.00;2.00;;;;;21.61;55.15;99334.75;110146;1265;19388;-34
2023/10/25 10:36:54;;;;;;;;;5.00;4.00;;;;;21.58;54.95;99334.45;110168;1250;22405;-34
2023/10/25 10:39:22;;;;;;;;;4.00;4.00;;;;;21.61;54.78;99327.66;110139;1251;19898;-34
2023/10/25 10:41:49;;;;;;;;;2.00;2.00;;;;;21.64;54.63;99325.80;110127;1259;20691;-33
2023/10/25 10:44:17;;;;;;;;;4.00;4.00;;;;;21.63;54.52;99330.57;110116;1265;18530;-33
2023/10/25 10:46:44;;;;;;;;;4.00;4.00;;;;;21.63;54.34;99329.35;110108;1251;22627;-34
2023/10/25 10:49:13;;;;;;;;;5.00;4.00;;;;;21.57;54.40;99328.05;110120;1265;19365;-35
2023/10/25 10:51:40;;;;;;;;;4.00;4.00;;;;;21.62;54.04;99329.77;110180;1265;19860;-33
2023/10/25 10:54:08;;;;;;;;;3.00;3.00;;;;;21.53;54.49;99327.86;110146;1250;22436;-35
2023/10/25 10:56:35;;;;;;;;;5.00;4.00;;;;;21.52;54.58;99320.48;110023;1265;19545;-35
2023/10/25 10:59:03;;;;;;;;;5.00;5.00;;;;;21.49;54.29;99315.40;110081;1265;19563;-34
2023/10/25 11:01:30;;;;;;;;;7.00;7.00;;;;;21.53;54.06;99305.91;110158;1265;18625;-34
2023/10/25 11:03:58;;;;;;;;;5.00;5.00;;;;;21.56;53.86;99305.29;110141;1266;22251;-34
2023/10/25 11:06:26;;;;;;;;;5.00;5.00;;;;;21.52;54.17;99309.69;110208;1265;19898;-34
2023/10/25 11:08:53;;;;;;;;;8.00;7.00;;;;;21.51;54.26;99304.11;110165;1253;20150;-34
2023/10/25 11:11:21;;;;;;;;;7.00;5.00;;;;;21.47;54.29;99306.05;110144;1265;20805;-33
2023/10/25 11:13:48;;;;;;;;;5.00;5.00;;;;;21.45;54.25;99300.88;110137;1250;21023;-34
2023/10/25 11:16:15;;;;;;;;;7.00;7.00;;;;;21.52;53.89;99299.17;110138;1259;19923;-34
2023/10/25 11:18:43;;;;;;;;;8.00;7.00;;;;;21.45;53.81;99303.29;110145;1265;19389;-34
2023/10/25 11:21:10;;;;;;;;;;;;;;;21.39;53.94;99312.41;110159;1251;20607;-33
2023/10/25 11:23:38;;;;;;;;;7.00;7.00;;;;;21.41;53.90;99309.80;110129;1265;19606;-34
2023/10/25 11:26:05;;;;;;;;;7.00;7.00;;;;;21.41;53.97;99309.80;110152;1266;20825;-34